Terminal Aerodrome Forecast
Issued by NWS

Home | Current Version | Previous Version | Text Only | Print | Product List | Glossary On
Versions: 1 2 3 4 5 6 7 8 9 10 11 12 13 14 15 16
000
FTUS43 KPAH 201720
TAFCGI
TAF
KCGI 201720Z 2018/2118 20007KT P6SM SCT040 BKN250
     FM210000 18004KT P6SM FEW250
     FM210700 00000KT 3SM BR BCFG FEW250
     FM211400 19005KT P6SM SCT040=

USA.gov is the U.S. government's official web portal to all federal, state and local government web resources and services.